sensor_id;sensor_type;location;lat;lon;timestamp;temperature;humidity
22114;DHT22;11223;49.968;9.062;2023-04-24T00:01:41;10.90;99.90
22114;DHT22;11223;49.968;9.062;2023-04-24T00:04:08;10.90;99.90
22114;DHT22;11223;49.968;9.062;2023-04-24T00:06:36;10.90;99.90
22114;DHT22;11223;49.968;9.062;2023-04-24T00:09:03;10.90;99.90
22114;DHT22;11223;49.968;9.062;2023-04-24T00:11:29;10.90;99.90
22114;DHT22;11223;49.968;9.062;2023-04-24T00:13:55;10.90;99.90
22114;DHT22;11223;49.968;9.062;2023-04-24T00:16:21;10.90;99.90
22114;DHT22;11223;49.968;9.062;2023-04-24T00:18:46;10.80;99.90
22114;DHT22;11223;49.968;9.062;2023-04-24T00:21:13;10.90;99.90
22114;DHT22;11223;49.968;9.062;2023-04-24T00:23:39;10.90;99.90
22114;DHT22;11223;49.968;9.062;2023-04-24T00:26:04;10.90;99.90
22114;DHT22;11223;49.968;9.062;2023-04-24T00:28:30;10.90;99.90
22114;DHT22;11223;49.968;9.062;2023-04-24T00:30:55;10.90;99.90
22114;DHT22;11223;49.968;9.062;2023-04-24T00:33:21;10.90;99.90
22114;DHT22;11223;49.968;9.062;2023-04-24T00:35:46;10.90;99.90
22114;DHT22;11223;49.968;9.062;2023-04-24T00:38:12;10.90;99.90
22114;DHT22;11223;49.968;9.062;2023-04-24T00:40:38;10.90;99.90
22114;DHT22;11223;49.968;9.062;2023-04-24T00:43:03;10.90;99.90
22114;DHT22;11223;49.968;9.062;2023-04-24T00:45:29;10.90;99.90
22114;DHT22;11223;49.968;9.062;2023-04-24T00:47:56;11.00;99.90
22114;DHT22;11223;49.968;9.062;2023-04-24T00:50:23;11.00;99.90
22114;DHT22;11223;49.968;9.062;2023-04-24T00:52:49;11.00;99.90
22114;DHT22;11223;49.968;9.062;2023-04-24T00:55:16;11.00;99.90
22114;DHT22;11223;49.968;9.062;2023-04-24T00:57:42;11.00;99.90
22114;DHT22;11223;49.968;9.062;2023-04-24T01:00:08;11.00;99.90
22114;DHT22;11223;49.968;9.062;2023-04-24T01:02:43;11.00;99.90
22114;DHT22;11223;49.968;9.062;2023-04-24T01:05:13;11.00;99.90
22114;DHT22;11223;49.968;9.062;2023-04-24T01:07:39;11.10;99.90
22114;DHT22;11223;49.968;9.062;2023-04-24T01:10:07;11.00;99.90
22114;DHT22;11223;49.968;9.062;2023-04-24T01:12:33;11.10;99.90
22114;DHT22;11223;49.968;9.062;2023-04-24T01:14:59;11.10;99.90
22114;DHT22;11223;49.968;9.062;2023-04-24T01:17:24;11.10;99.90
22114;DHT22;11223;49.968;9.062;2023-04-24T01:19:50;11.10;99.90
22114;DHT22;11223;49.968;9.062;2023-04-24T01:22:20;11.10;99.90
22114;DHT22;11223;49.968;9.062;2023-04-24T01:24:46;11.10;99.90
22114;DHT22;11223;49.968;9.062;2023-04-24T01:27:12;11.10;99.90
22114;DHT22;11223;49.968;9.062;2023-04-24T01:29:38;11.10;99.90
22114;DHT22;11223;49.968;9.062;2023-04-24T01:32:04;11.10;99.90
22114;DHT22;11223;49.968;9.062;2023-04-24T01:34:30;11.10;99.90
22114;DHT22;11223;49.968;9.062;2023-04-24T01:36:56;11.10;99.90
22114;DHT22;11223;49.968;9.062;2023-04-24T01:39:22;11.10;99.90
22114;DHT22;11223;49.968;9.062;2023-04-24T01:41:51;11.10;99.90
22114;DHT22;11223;49.968;9.062;2023-04-24T01:44:18;11.10;99.90
22114;DHT22;11223;49.968;9.062;2023-04-24T01:46:43;11.10;99.90
22114;DHT22;11223;49.968;9.062;2023-04-24T01:49:09;11.10;99.90
22114;DHT22;11223;49.968;9.062;2023-04-24T01:51:35;11.10;99.90
22114;DHT22;11223;49.968;9.062;2023-04-24T01:54:00;11.10;99.90
22114;DHT22;11223;49.968;9.062;2023-04-24T01:56:29;11.00;99.90
22114;DHT22;11223;49.968;9.062;2023-04-24T01:58:55;11.00;99.90
22114;DHT22;11223;49.968;9.062;2023-04-24T02:01:22;11.00;99.90
22114;DHT22;11223;49.968;9.062;2023-04-24T02:03:48;11.00;99.90
22114;DHT22;11223;49.968;9.062;2023-04-24T02:06:14;11.00;99.90
22114;DHT22;11223;49.968;9.062;2023-04-24T02:08:39;11.10;99.90
22114;DHT22;11223;49.968;9.062;2023-04-24T02:11:05;11.10;99.90
22114;DHT22;11223;49.968;9.062;2023-04-24T02:13:31;11.00;99.90
22114;DHT22;11223;49.968;9.062;2023-04-24T02:15:58;11.00;99.90
22114;DHT22;11223;49.968;9.062;2023-04-24T02:18:24;11.00;99.90
22114;DHT22;11223;49.968;9.062;2023-04-24T02:20:49;11.00;99.90
22114;DHT22;11223;49.968;9.062;2023-04-24T02:23:15;11.00;99.90
22114;DHT22;11223;49.968;9.062;2023-04-24T02:25:40;11.00;99.90
22114;DHT22;11223;49.968;9.062;2023-04-24T02:28:06;11.00;99.90
22114;DHT22;11223;49.968;9.062;2023-04-24T02:30:31;11.00;99.90
22114;DHT22;11223;49.968;9.062;2023-04-24T02:32:57;11.00;99.90
22114;DHT22;11223;49.968;9.062;2023-04-24T02:35:23;11.00;99.90
22114;DHT22;11223;49.968;9.062;2023-04-24T02:37:48;11.00;99.90
22114;DHT22;11223;49.968;9.062;2023-04-24T02:40:14;11.10;99.90
22114;DHT22;11223;49.968;9.062;2023-04-24T02:42:39;11.10;99.90
22114;DHT22;11223;49.968;9.062;2023-04-24T02:45:05;11.10;99.90
22114;DHT22;11223;49.968;9.062;2023-04-24T02:47:31;11.00;99.90
22114;DHT22;11223;49.968;9.062;2023-04-24T02:49:57;11.00;99.90
22114;DHT22;11223;49.968;9.062;2023-04-24T02:52:22;11.00;99.90
22114;DHT22;11223;49.968;9.062;2023-04-24T02:54:48;11.00;99.90
22114;DHT22;11223;49.968;9.062;2023-04-24T02:57:13;11.00;99.90
22114;DHT22;11223;49.968;9.062;2023-04-24T02:59:39;11.00;99.90
22114;DHT22;11223;49.968;9.062;2023-04-24T03:02:04;10.90;99.90
22114;DHT22;11223;49.968;9.062;2023-04-24T03:04:31;11.00;99.90
22114;DHT22;11223;49.968;9.062;2023-04-24T03:06:57;10.90;99.90
22114;DHT22;11223;49.968;9.062;2023-04-24T03:09:23;11.00;99.90
22114;DHT22;11223;49.968;9.062;2023-04-24T03:11:49;11.00;99.90
22114;DHT22;11223;49.968;9.062;2023-04-24T03:14:15;11.00;99.90
22114;DHT22;11223;49.968;9.062;2023-04-24T03:16:41;11.00;99.90
22114;DHT22;11223;49.968;9.062;2023-04-24T03:19:07;10.90;99.90
22114;DHT22;11223;49.968;9.062;2023-04-24T03:21:32;11.00;99.90
22114;DHT22;11223;49.968;9.062;2023-04-24T03:23:58;10.90;99.90
22114;DHT22;11223;49.968;9.062;2023-04-24T03:26:24;10.90;99.90
22114;DHT22;11223;49.968;9.062;2023-04-24T03:28:50;11.00;99.90
22114;DHT22;11223;49.968;9.062;2023-04-24T03:31:15;11.00;99.90
22114;DHT22;11223;49.968;9.062;2023-04-24T03:33:42;10.90;99.90
22114;DHT22;11223;49.968;9.062;2023-04-24T03:36:07;10.90;99.90
22114;DHT22;11223;49.968;9.062;2023-04-24T03:38:33;10.90;99.90
22114;DHT22;11223;49.968;9.062;2023-04-24T03:40:58;10.90;99.90
22114;DHT22;11223;49.968;9.062;2023-04-24T03:43:24;10.90;99.90
22114;DHT22;11223;49.968;9.062;2023-04-24T03:45:49;10.90;99.90
22114;DHT22;11223;49.968;9.062;2023-04-24T03:48:15;10.90;99.90
22114;DHT22;11223;49.968;9.062;2023-04-24T03:50:40;10.80;99.90
22114;DHT22;11223;49.968;9.062;2023-04-24T03:53:06;10.90;99.90
22114;DHT22;11223;49.968;9.062;2023-04-24T03:55:31;10.90;99.90
22114;DHT22;11223;49.968;9.062;2023-04-24T03:57:57;10.90;99.90
22114;DHT22;11223;49.968;9.062;2023-04-24T04:00:22;10.90;99.90
22114;DHT22;11223;49.968;9.062;2023-04-24T04:02:48;10.90;99.90
22114;DHT22;11223;49.968;9.062;2023-04-24T04:05:14;10.90;99.90
22114;DHT22;11223;49.968;9.062;2023-04-24T04:07:39;10.80;99.90
22114;DHT22;11223;49.968;9.062;2023-04-24T04:10:05;10.80;99.90
22114;DHT22;11223;49.968;9.062;2023-04-24T04:12:32;10.80;99.90
22114;DHT22;11223;49.968;9.062;2023-04-24T04:14:57;10.70;99.90
22114;DHT22;11223;49.968;9.062;2023-04-24T04:17:23;10.70;99.90
22114;DHT22;11223;49.968;9.062;2023-04-24T04:19:48;10.60;99.90
22114;DHT22;11223;49.968;9.062;2023-04-24T04:22:14;10.70;99.90
22114;DHT22;11223;49.968;9.062;2023-04-24T04:24:40;10.60;99.90
22114;DHT22;11223;49.968;9.062;2023-04-24T04:27:07;10.50;99.90
22114;DHT22;11223;49.968;9.062;2023-04-24T04:29:33;10.50;99.90
22114;DHT22;11223;49.968;9.062;2023-04-24T04:32:01;10.40;99.90
22114;DHT22;11223;49.968;9.062;2023-04-24T04:34:27;10.40;99.90
22114;DHT22;11223;49.968;9.062;2023-04-24T04:36:53;10.30;99.90
22114;DHT22;11223;49.968;9.062;2023-04-24T04:39:18;10.20;99.90
22114;DHT22;11223;49.968;9.062;2023-04-24T04:41:45;10.20;99.90
22114;DHT22;11223;49.968;9.062;2023-04-24T04:44:14;10.20;99.90
22114;DHT22;11223;49.968;9.062;2023-04-24T04:46:40;10.10;99.90
22114;DHT22;11223;49.968;9.062;2023-04-24T04:49:07;10.10;99.90
22114;DHT22;11223;49.968;9.062;2023-04-24T04:51:34;10.00;99.90
22114;DHT22;11223;49.968;9.062;2023-04-24T04:53:59;9.90;99.90
22114;DHT22;11223;49.968;9.062;2023-04-24T04:56:26;9.90;99.90
22114;DHT22;11223;49.968;9.062;2023-04-24T04:58:51;9.90;99.90
22114;DHT22;11223;49.968;9.062;2023-04-24T05:01:17;9.80;99.90
22114;DHT22;11223;49.968;9.062;2023-04-24T05:03:42;9.80;99.90
22114;DHT22;11223;49.968;9.062;2023-04-24T05:06:08;9.80;99.90
22114;DHT22;11223;49.968;9.062;2023-04-24T05:08:34;9.80;99.90
22114;DHT22;11223;49.968;9.062;2023-04-24T05:10:59;9.80;99.90
22114;DHT22;11223;49.968;9.062;2023-04-24T05:13:25;9.80;99.90
22114;DHT22;11223;49.968;9.062;2023-04-24T05:15:51;9.80;99.90
22114;DHT22;11223;49.968;9.062;2023-04-24T05:18:16;9.80;99.90
22114;DHT22;11223;49.968;9.062;2023-04-24T05:20:42;9.80;99.90
22114;DHT22;11223;49.968;9.062;2023-04-24T05:23:09;9.90;99.90
22114;DHT22;11223;49.968;9.062;2023-04-24T05:25:35;9.90;99.90
22114;DHT22;11223;49.968;9.062;2023-04-24T05:28:01;9.90;99.90
22114;DHT22;11223;49.968;9.062;2023-04-24T05:30:27;10.00;99.90
22114;DHT22;11223;49.968;9.062;2023-04-24T05:32:53;10.10;99.90
22114;DHT22;11223;49.968;9.062;2023-04-24T05:35:18;10.10;99.90
22114;DHT22;11223;49.968;9.062;2023-04-24T05:37:44;10.20;99.90
22114;DHT22;11223;49.968;9.062;2023-04-24T05:40:10;10.30;99.90
22114;DHT22;11223;49.968;9.062;2023-04-24T05:42:36;10.40;99.90
22114;DHT22;11223;49.968;9.062;2023-04-24T05:45:02;10.40;99.90
22114;DHT22;11223;49.968;9.062;2023-04-24T05:47:28;10.50;99.90
22114;DHT22;11223;49.968;9.062;2023-04-24T05:49:54;10.50;99.90
22114;DHT22;11223;49.968;9.062;2023-04-24T05:52:19;10.60;99.90
22114;DHT22;11223;49.968;9.062;2023-04-24T05:54:45;10.60;99.90
22114;DHT22;11223;49.968;9.062;2023-04-24T05:57:10;10.70;99.90
22114;DHT22;11223;49.968;9.062;2023-04-24T05:59:37;10.80;99.90
22114;DHT22;11223;49.968;9.062;2023-04-24T06:02:07;10.80;99.90
22114;DHT22;11223;49.968;9.062;2023-04-24T06:04:32;10.90;99.90
22114;DHT22;11223;49.968;9.062;2023-04-24T06:06:59;11.00;99.90
22114;DHT22;11223;49.968;9.062;2023-04-24T06:09:25;11.00;99.90
22114;DHT22;11223;49.968;9.062;2023-04-24T06:11:51;11.10;99.90
22114;DHT22;11223;49.968;9.062;2023-04-24T06:14:20;11.20;99.90
22114;DHT22;11223;49.968;9.062;2023-04-24T06:16:45;11.30;99.90
22114;DHT22;11223;49.968;9.062;2023-04-24T06:19:11;11.40;99.90
22114;DHT22;11223;49.968;9.062;2023-04-24T06:21:36;11.50;99.90
22114;DHT22;11223;49.968;9.062;2023-04-24T06:24:03;11.70;99.90
22114;DHT22;11223;49.968;9.062;2023-04-24T06:26:29;11.80;99.90
22114;DHT22;11223;49.968;9.062;2023-04-24T06:28:55;11.90;99.90
22114;DHT22;11223;49.968;9.062;2023-04-24T06:31:21;12.00;99.90
22114;DHT22;11223;49.968;9.062;2023-04-24T06:33:48;12.10;99.90
22114;DHT22;11223;49.968;9.062;2023-04-24T06:36:14;12.20;99.90
22114;DHT22;11223;49.968;9.062;2023-04-24T06:38:39;12.30;99.90
22114;DHT22;11223;49.968;9.062;2023-04-24T06:41:05;12.40;99.90
22114;DHT22;11223;49.968;9.062;2023-04-24T06:43:31;12.30;99.90
22114;DHT22;11223;49.968;9.062;2023-04-24T06:46:00;12.40;99.90
22114;DHT22;11223;49.968;9.062;2023-04-24T06:48:26;12.30;99.90
22114;DHT22;11223;49.968;9.062;2023-04-24T06:50:52;12.30;99.90
22114;DHT22;11223;49.968;9.062;2023-04-24T06:53:17;12.20;99.90
22114;DHT22;11223;49.968;9.062;2023-04-24T06:55:43;12.10;99.90
22114;DHT22;11223;49.968;9.062;2023-04-24T06:58:10;12.10;99.90
22114;DHT22;11223;49.968;9.062;2023-04-24T07:00:36;12.10;99.90
22114;DHT22;11223;49.968;9.062;2023-04-24T07:03:02;12.10;99.90
22114;DHT22;11223;49.968;9.062;2023-04-24T07:05:28;12.10;99.90
22114;DHT22;11223;49.968;9.062;2023-04-24T07:07:53;12.10;99.90
22114;DHT22;11223;49.968;9.062;2023-04-24T07:10:19;12.10;99.90
22114;DHT22;11223;49.968;9.062;2023-04-24T07:12:45;12.10;99.90
22114;DHT22;11223;49.968;9.062;2023-04-24T07:15:11;12.10;99.90
22114;DHT22;11223;49.968;9.062;2023-04-24T07:17:37;12.20;99.90
22114;DHT22;11223;49.968;9.062;2023-04-24T07:20:04;12.40;99.90
22114;DHT22;11223;49.968;9.062;2023-04-24T07:22:30;12.50;99.90
22114;DHT22;11223;49.968;9.062;2023-04-24T07:24:56;12.50;99.90
22114;DHT22;11223;49.968;9.062;2023-04-24T07:27:22;12.70;99.90
22114;DHT22;11223;49.968;9.062;2023-04-24T07:29:48;12.70;99.90
22114;DHT22;11223;49.968;9.062;2023-04-24T07:32:13;12.80;99.90
22114;DHT22;11223;49.968;9.062;2023-04-24T07:34:39;12.90;99.90
22114;DHT22;11223;49.968;9.062;2023-04-24T07:37:05;12.80;99.90
22114;DHT22;11223;49.968;9.062;2023-04-24T07:39:31;13.00;99.90
22114;DHT22;11223;49.968;9.062;2023-04-24T07:41:57;13.10;99.90
22114;DHT22;11223;49.968;9.062;2023-04-24T07:44:24;13.30;99.90
22114;DHT22;11223;49.968;9.062;2023-04-24T07:46:50;13.50;99.90
22114;DHT22;11223;49.968;9.062;2023-04-24T07:49:15;13.70;99.90
22114;DHT22;11223;49.968;9.062;2023-04-24T07:51:41;13.90;99.90
22114;DHT22;11223;49.968;9.062;2023-04-24T07:54:07;14.00;99.90
22114;DHT22;11223;49.968;9.062;2023-04-24T07:56:33;13.90;99.90
22114;DHT22;11223;49.968;9.062;2023-04-24T07:58:58;13.90;99.90
22114;DHT22;11223;49.968;9.062;2023-04-24T08:01:25;13.80;99.90
22114;DHT22;11223;49.968;9.062;2023-04-24T08:03:50;13.80;99.90
22114;DHT22;11223;49.968;9.062;2023-04-24T08:06:16;13.90;99.90
22114;DHT22;11223;49.968;9.062;2023-04-24T08:08:42;13.90;99.90
22114;DHT22;11223;49.968;9.062;2023-04-24T08:11:07;13.80;99.90
22114;DHT22;11223;49.968;9.062;2023-04-24T08:13:33;14.00;99.90
22114;DHT22;11223;49.968;9.062;2023-04-24T08:15:58;14.20;99.90
22114;DHT22;11223;49.968;9.062;2023-04-24T08:18:24;14.40;99.90
22114;DHT22;11223;49.968;9.062;2023-04-24T08:20:50;14.60;99.90
22114;DHT22;11223;49.968;9.062;2023-04-24T08:23:15;14.60;99.90
22114;DHT22;11223;49.968;9.062;2023-04-24T08:25:41;14.50;99.90
22114;DHT22;11223;49.968;9.062;2023-04-24T08:28:08;14.50;99.90
22114;DHT22;11223;49.968;9.062;2023-04-24T08:30:34;14.50;99.90
22114;DHT22;11223;49.968;9.062;2023-04-24T08:33:00;14.60;99.90
22114;DHT22;11223;49.968;9.062;2023-04-24T08:35:25;14.70;99.90
22114;DHT22;11223;49.968;9.062;2023-04-24T08:37:52;14.90;99.90
22114;DHT22;11223;49.968;9.062;2023-04-24T08:40:22;14.80;99.90
22114;DHT22;11223;49.968;9.062;2023-04-24T08:42:49;14.60;99.90
22114;DHT22;11223;49.968;9.062;2023-04-24T08:45:15;14.50;99.90
22114;DHT22;11223;49.968;9.062;2023-04-24T08:47:41;14.10;99.90
22114;DHT22;11223;49.968;9.062;2023-04-24T08:50:08;13.80;99.90
22114;DHT22;11223;49.968;9.062;2023-04-24T08:52:35;13.60;99.90
22114;DHT22;11223;49.968;9.062;2023-04-24T08:55:01;13.40;99.90
22114;DHT22;11223;49.968;9.062;2023-04-24T08:57:28;13.30;99.90
22114;DHT22;11223;49.968;9.062;2023-04-24T08:59:54;13.20;99.90
22114;DHT22;11223;49.968;9.062;2023-04-24T09:02:21;13.10;99.90
22114;DHT22;11223;49.968;9.062;2023-04-24T09:04:47;13.20;99.90
22114;DHT22;11223;49.968;9.062;2023-04-24T09:07:14;13.40;99.90
22114;DHT22;11223;49.968;9.062;2023-04-24T09:09:40;13.40;99.90
22114;DHT22;11223;49.968;9.062;2023-04-24T09:12:07;13.40;99.90
22114;DHT22;11223;49.968;9.062;2023-04-24T09:14:34;13.40;99.90
22114;DHT22;11223;49.968;9.062;2023-04-24T09:17:02;13.40;99.90
22114;DHT22;11223;49.968;9.062;2023-04-24T09:19:27;13.30;99.90
22114;DHT22;11223;49.968;9.062;2023-04-24T09:21:53;13.30;99.90
22114;DHT22;11223;49.968;9.062;2023-04-24T09:24:20;13.20;99.90
22114;DHT22;11223;49.968;9.062;2023-04-24T09:26:49;13.10;99.90
22114;DHT22;11223;49.968;9.062;2023-04-24T09:29:15;13.00;99.90
22114;DHT22;11223;49.968;9.062;2023-04-24T09:31:42;12.90;99.90
22114;DHT22;11223;49.968;9.062;2023-04-24T09:34:08;12.80;99.90
22114;DHT22;11223;49.968;9.062;2023-04-24T09:36:37;12.70;99.90
22114;DHT22;11223;49.968;9.062;2023-04-24T09:39:09;12.60;99.90
22114;DHT22;11223;49.968;9.062;2023-04-24T09:41:52;12.60;99.90
22114;DHT22;11223;49.968;9.062;2023-04-24T09:44:20;12.60;99.90
22114;DHT22;11223;49.968;9.062;2023-04-24T09:46:55;12.70;99.90
22114;DHT22;11223;49.968;9.062;2023-04-24T09:49:25;12.90;99.90
22114;DHT22;11223;49.968;9.062;2023-04-24T09:51:52;13.20;99.90
22114;DHT22;11223;49.968;9.062;2023-04-24T09:54:21;13.60;99.90
22114;DHT22;11223;49.968;9.062;2023-04-24T09:56:49;14.00;99.90
22114;DHT22;11223;49.968;9.062;2023-04-24T09:59:16;14.40;99.90
22114;DHT22;11223;49.968;9.062;2023-04-24T10:01:43;14.60;99.90
22114;DHT22;11223;49.968;9.062;2023-04-24T10:04:20;14.70;99.90
22114;DHT22;11223;49.968;9.062;2023-04-24T10:06:47;14.90;99.90
22114;DHT22;11223;49.968;9.062;2023-04-24T10:09:15;14.90;99.90
22114;DHT22;11223;49.968;9.062;2023-04-24T10:11:45;14.70;99.90
22114;DHT22;11223;49.968;9.062;2023-04-24T10:14:17;14.40;99.90
22114;DHT22;11223;49.968;9.062;2023-04-24T10:16:44;14.20;99.90
22114;DHT22;11223;49.968;9.062;2023-04-24T10:19:12;14.00;99.90
22114;DHT22;11223;49.968;9.062;2023-04-24T10:21:38;13.90;99.90
22114;DHT22;11223;49.968;9.062;2023-04-24T10:24:08;13.80;99.90
22114;DHT22;11223;49.968;9.062;2023-04-24T10:26:34;13.90;99.90
22114;DHT22;11223;49.968;9.062;2023-04-24T10:29:01;13.70;99.90
22114;DHT22;11223;49.968;9.062;2023-04-24T10:31:27;13.60;99.90
22114;DHT22;11223;49.968;9.062;2023-04-24T10:33:56;13.60;99.90
22114;DHT22;11223;49.968;9.062;2023-04-24T10:36:24;13.60;99.90
22114;DHT22;11223;49.968;9.062;2023-04-24T10:38:53;13.70;99.90
22114;DHT22;11223;49.968;9.062;2023-04-24T10:41:20;13.70;99.90
22114;DHT22;11223;49.968;9.062;2023-04-24T10:43:58;13.60;99.90
22114;DHT22;11223;49.968;9.062;2023-04-24T10:46:30;13.60;99.90
22114;DHT22;11223;49.968;9.062;2023-04-24T10:48:55;13.60;99.90
22114;DHT22;11223;49.968;9.062;2023-04-24T10:51:22;13.50;99.90
22114;DHT22;11223;49.968;9.062;2023-04-24T10:53:50;13.50;99.90
22114;DHT22;11223;49.968;9.062;2023-04-24T10:56:16;13.50;99.90
22114;DHT22;11223;49.968;9.062;2023-04-24T10:58:44;13.50;99.90
22114;DHT22;11223;49.968;9.062;2023-04-24T11:03:56;13.30;99.90
22114;DHT22;11223;49.968;9.062;2023-04-24T11:06:36;13.30;99.90
22114;DHT22;11223;49.968;9.062;2023-04-24T11:09:09;13.30;99.90
22114;DHT22;11223;49.968;9.062;2023-04-24T11:11:37;13.30;99.90
22114;DHT22;11223;49.968;9.062;2023-04-24T11:14:06;13.30;99.90
22114;DHT22;11223;49.968;9.062;2023-04-24T11:16:36;13.30;99.90
22114;DHT22;11223;49.968;9.062;2023-04-24T11:24:27;13.30;99.90
22114;DHT22;11223;49.968;9.062;2023-04-24T11:29:47;13.30;99.90
22114;DHT22;11223;49.968;9.062;2023-04-24T11:35:03;13.00;99.90
22114;DHT22;11223;49.968;9.062;2023-04-24T11:39:58;12.70;99.90
22114;DHT22;11223;49.968;9.062;2023-04-24T11:42:24;12.60;99.90
22114;DHT22;11223;49.968;9.062;2023-04-24T11:44:54;12.40;99.90
22114;DHT22;11223;49.968;9.062;2023-04-24T11:47:30;12.20;99.90
22114;DHT22;11223;49.968;9.062;2023-04-24T11:49:58;12.00;99.90
22114;DHT22;11223;49.968;9.062;2023-04-24T11:52:23;11.80;99.90
22114;DHT22;11223;49.968;9.062;2023-04-24T11:54:50;11.70;99.90
22114;DHT22;11223;49.968;9.062;2023-04-24T11:57:16;11.60;99.90
22114;DHT22;11223;49.968;9.062;2023-04-24T11:59:43;11.50;99.90
22114;DHT22;11223;49.968;9.062;2023-04-24T12:02:20;11.50;99.90
22114;DHT22;11223;49.968;9.062;2023-04-24T12:04:46;11.50;99.90
22114;DHT22;11223;49.968;9.062;2023-04-24T12:07:11;11.40;99.90
22114;DHT22;11223;49.968;9.062;2023-04-24T12:09:46;11.40;99.90
22114;DHT22;11223;49.968;9.062;2023-04-24T12:12:13;11.40;99.90
22114;DHT22;11223;49.968;9.062;2023-04-24T12:14:44;11.40;99.90
22114;DHT22;11223;49.968;9.062;2023-04-24T12:17:09;11.40;99.90
22114;DHT22;11223;49.968;9.062;2023-04-24T12:19:35;11.50;99.90
22114;DHT22;11223;49.968;9.062;2023-04-24T12:22:05;11.60;99.90
22114;DHT22;11223;49.968;9.062;2023-04-24T12:24:31;11.70;99.90
22114;DHT22;11223;49.968;9.062;2023-04-24T12:26:57;11.60;99.90
22114;DHT22;11223;49.968;9.062;2023-04-24T12:29:24;11.50;99.90
22114;DHT22;11223;49.968;9.062;2023-04-24T12:31:51;11.40;99.90
22114;DHT22;11223;49.968;9.062;2023-04-24T12:34:21;11.30;99.90
22114;DHT22;11223;49.968;9.062;2023-04-24T12:36:47;11.20;99.90
22114;DHT22;11223;49.968;9.062;2023-04-24T12:39:19;11.20;99.90
22114;DHT22;11223;49.968;9.062;2023-04-24T12:42:11;11.20;99.90
22114;DHT22;11223;49.968;9.062;2023-04-24T12:44:37;11.30;99.90
22114;DHT22;11223;49.968;9.062;2023-04-24T12:47:03;11.50;99.90
22114;DHT22;11223;49.968;9.062;2023-04-24T12:49:31;11.70;99.90
22114;DHT22;11223;49.968;9.062;2023-04-24T12:51:57;11.90;99.90
22114;DHT22;11223;49.968;9.062;2023-04-24T12:54:22;12.30;99.90
22114;DHT22;11223;49.968;9.062;2023-04-24T12:56:48;12.50;99.90
22114;DHT22;11223;49.968;9.062;2023-04-24T12:59:14;13.00;99.90
22114;DHT22;11223;49.968;9.062;2023-04-24T13:01:40;13.50;99.90
22114;DHT22;11223;49.968;9.062;2023-04-24T13:04:05;14.00;99.90
22114;DHT22;11223;49.968;9.062;2023-04-24T13:06:31;14.60;99.90
22114;DHT22;11223;49.968;9.062;2023-04-24T13:08:57;14.90;99.90
22114;DHT22;11223;49.968;9.062;2023-04-24T13:11:23;14.70;99.90
22114;DHT22;11223;49.968;9.062;2023-04-24T13:13:49;14.30;99.90
22114;DHT22;11223;49.968;9.062;2023-04-24T13:16:15;13.70;99.90
22114;DHT22;11223;49.968;9.062;2023-04-24T13:18:40;13.30;99.90
22114;DHT22;11223;49.968;9.062;2023-04-24T13:21:06;12.90;99.90
22114;DHT22;11223;49.968;9.062;2023-04-24T13:23:31;12.60;99.90
22114;DHT22;11223;49.968;9.062;2023-04-24T13:25:57;12.40;99.90
22114;DHT22;11223;49.968;9.062;2023-04-24T13:28:24;12.10;99.90
22114;DHT22;11223;49.968;9.062;2023-04-24T13:30:50;11.90;99.90
22114;DHT22;11223;49.968;9.062;2023-04-24T13:33:16;11.60;99.90
22114;DHT22;11223;49.968;9.062;2023-04-24T13:35:42;11.40;99.90
22114;DHT22;11223;49.968;9.062;2023-04-24T13:38:07;11.30;99.90
22114;DHT22;11223;49.968;9.062;2023-04-24T13:40:33;11.20;99.90
22114;DHT22;11223;49.968;9.062;2023-04-24T13:42:59;11.10;99.90
22114;DHT22;11223;49.968;9.062;2023-04-24T13:45:24;11.20;99.90
22114;DHT22;11223;49.968;9.062;2023-04-24T13:47:50;11.30;99.90
22114;DHT22;11223;49.968;9.062;2023-04-24T13:50:15;11.30;99.90
22114;DHT22;11223;49.968;9.062;2023-04-24T13:52:41;11.40;99.90
22114;DHT22;11223;49.968;9.062;2023-04-24T13:55:07;11.60;99.90
22114;DHT22;11223;49.968;9.062;2023-04-24T13:57:33;11.80;99.90
22114;DHT22;11223;49.968;9.062;2023-04-24T13:59:58;12.00;99.90
22114;DHT22;11223;49.968;9.062;2023-04-24T14:02:29;12.30;99.90
22114;DHT22;11223;49.968;9.062;2023-04-24T14:04:55;12.50;99.90
22114;DHT22;11223;49.968;9.062;2023-04-24T14:07:20;12.80;99.90
22114;DHT22;11223;49.968;9.062;2023-04-24T14:09:46;13.60;99.90
22114;DHT22;11223;49.968;9.062;2023-04-24T14:12:11;13.90;99.90
22114;DHT22;11223;49.968;9.062;2023-04-24T14:14:38;14.00;99.90
22114;DHT22;11223;49.968;9.062;2023-04-24T14:17:03;14.00;99.90
22114;DHT22;11223;49.968;9.062;2023-04-24T14:19:29;13.90;99.90
22114;DHT22;11223;49.968;9.062;2023-04-24T14:21:54;13.70;99.90
22114;DHT22;11223;49.968;9.062;2023-04-24T14:24:22;13.50;99.90
22114;DHT22;11223;49.968;9.062;2023-04-24T14:26:47;13.20;99.90
22114;DHT22;11223;49.968;9.062;2023-04-24T14:29:13;12.80;99.90
22114;DHT22;11223;49.968;9.062;2023-04-24T14:31:38;12.50;99.90
22114;DHT22;11223;49.968;9.062;2023-04-24T14:34:04;12.30;99.90
22114;DHT22;11223;49.968;9.062;2023-04-24T14:36:29;12.00;99.90
22114;DHT22;11223;49.968;9.062;2023-04-24T14:38:56;11.90;99.90
22114;DHT22;11223;49.968;9.062;2023-04-24T14:41:22;11.80;99.90
22114;DHT22;11223;49.968;9.062;2023-04-24T14:43:47;11.80;99.90
22114;DHT22;11223;49.968;9.062;2023-04-24T14:46:13;12.00;99.90
22114;DHT22;11223;49.968;9.062;2023-04-24T14:48:38;12.20;99.90
22114;DHT22;11223;49.968;9.062;2023-04-24T14:51:04;12.40;99.90
22114;DHT22;11223;49.968;9.062;2023-04-24T14:53:30;12.50;99.90
22114;DHT22;11223;49.968;9.062;2023-04-24T14:55:56;12.60;99.90
22114;DHT22;11223;49.968;9.062;2023-04-24T14:58:21;12.60;99.90
22114;DHT22;11223;49.968;9.062;2023-04-24T15:00:47;12.40;99.90
22114;DHT22;11223;49.968;9.062;2023-04-24T15:03:15;12.40;99.90
22114;DHT22;11223;49.968;9.062;2023-04-24T15:05:41;12.50;99.90
22114;DHT22;11223;49.968;9.062;2023-04-24T15:08:06;12.90;99.90
22114;DHT22;11223;49.968;9.062;2023-04-24T15:10:32;13.00;99.90
22114;DHT22;11223;49.968;9.062;2023-04-24T15:12:58;13.00;99.90
22114;DHT22;11223;49.968;9.062;2023-04-24T15:15:23;12.90;99.90
22114;DHT22;11223;49.968;9.062;2023-04-24T15:17:49;13.00;99.90
22114;DHT22;11223;49.968;9.062;2023-04-24T15:20:15;13.00;99.90
22114;DHT22;11223;49.968;9.062;2023-04-24T15:22:40;13.00;99.90
22114;DHT22;11223;49.968;9.062;2023-04-24T15:25:06;12.80;99.90
22114;DHT22;11223;49.968;9.062;2023-04-24T15:27:42;12.70;99.90
22114;DHT22;11223;49.968;9.062;2023-04-24T15:30:08;12.70;99.90
22114;DHT22;11223;49.968;9.062;2023-04-24T15:32:34;12.70;99.90
22114;DHT22;11223;49.968;9.062;2023-04-24T15:35:01;12.60;99.90
22114;DHT22;11223;49.968;9.062;2023-04-24T15:37:27;12.60;99.90
22114;DHT22;11223;49.968;9.062;2023-04-24T15:39:53;12.70;99.90
22114;DHT22;11223;49.968;9.062;2023-04-24T15:42:18;12.60;99.90
22114;DHT22;11223;49.968;9.062;2023-04-24T15:44:44;12.60;99.90